Tiempo atmosférico en la estación meteorológica de San Sebastián De La Gomera, Santa Cruz de Tenerife (15 m.)



Fecha
DESCASC
Temp. máxima en grados centígrados (hora)
DESCASC
Temp. mínima en grados centígrados (hora)
DESCASC
Temp. media en grados centígrados
DESCASC
Racha de viento máxima en m/sg (hora)
DESCASC
Velocidad máxima media en intervalos de 10 minutos(hora)
DESCASC
Precipitaciones diarias en mm
DESCASC
Precipitaciones de 00:00 a 06:00 en mm
DESCASC
Precipitaciones de 06:00 a 12:00 en mm
DESCASC
Precipitaciones de 12:00 a 18:00 en mm
DESCASC
Precipitaciones de 18:00 a 24:00 en mm
DESCASC
06-12-2018 27.4 (13:50) 20.2 (07:30) 23.8 6.67 (20:40) 3.89 (19:20) 0 0 0 0 0
05-12-2018 25.5 (16:40) 19.2 (01:40) 22.4 10 (10:20) 4.17 (22:00) 0 0 0 0 0
04-12-2018 24.5 (12:20) 17.7 (01:00) 21.1 10.28 (11:10) 5.28 (11:10) 0 0 0 0 0
03-12-2018 22.9 (10:10) 15.1 (00:00) 19 8.06 (11:00) 5.28 (11:10) 0 0 0 0 0
02-12-2018 24.4 (15:20) 17 (00:00) 20.7 11.11 (02:20) 5.28 (02:20) 0 0 0 0 0
01-12-2018 24.1 (12:40) 16.5 (00:00) 20.3 10 (14:50) 3.89 (14:30) 0 0 0 0 0
30-11-2018 24.5 (14:50) 17.1 (00:00) 20.8 7.5 (22:40) 4.72 (22:40) 0 0 0 0 0
29-11-2018 23.7 (16:50) 16.2 (00:00) 20 10.56 (22:40) 5.83 (22:50) 0 0 0 0 0
28-11-2018 23.7 (16:50) 16.3 (00:00) 20 6.67 (08:10) 2.78 (02:50) 0 0 0 0 0
27-11-2018 23.8 (16:20) 18.9 (00:00) 21.3 8.89 (18:00) 4.44 (17:20) 0.1 0.1 0 0 0
25-11-2018 24.5 (15:00) 17.5 (00:00) 21 9.72 (15:00) 5.28 (19:10) 0 0 0 0 0
24-11-2018 23.6 (16:40) 14.5 (00:00) 19.1 5 (04:10) 3.33 (04:20) 0 0 0 0 0
23-11-2018 20.8 (14:20) 15 (00:00) 17.9 12.22 (09:40) 5 (13:30) 2 0.8 1.2 0 0
22-11-2018 22.5 (10:30) 14.9 (00:00) 18.7 13.06 (16:00) 6.67 (16:00) 26.4 0 1.3 16.8 8.3
21-11-2018 22.4 (12:00) 17.4 (00:00) 19.9 11.67 (17:30) 6.39 (13:30) -- -- -- -- 0
20-11-2018 24 (12:40) 16.8 (00:00) 20.4 8.61 (00:40) 4.72 (00:30) -- -- -- -- --
19-11-2018 21.6 (13:20) 17 (00:00) 19.3 9.44 (19:40) 4.17 (12:40) -- -- -- -- --
18-11-2018 21.8 (13:40) 16.7 (00:00) 19.3 9.72 (15:10) 4.17 (16:20) -- -- -- -- --
17-11-2018 23.6 (16:20) 17.4 (00:00) 20.5 11.67 (07:20) 5.28 (07:10) -- -- -- -- --
16-11-2018 23.4 (16:50) 17.7 (00:00) 20.6 10.83 (14:10) 5.28 (14:20) -- -- -- -- --
15-11-2018 23.2 (14:40) 16.5 (00:00) 19.9 10.56 (13:10) 5.28 (11:30) -- -- -- -- --
14-11-2018 23.5 (12:30) 18.9 (00:00) 21.2 12.78 (01:10) 5 (15:20) -- -- -- -- --
13-11-2018 22.3 (14:30) 19.1 (00:00) 20.7 16.94 (08:20) 7.5 (21:10) -- -- -- -- --
12-11-2018 22.5 (13:00) 19 (00:00) 20.8 15 (09:20) 7.22 (16:40) -- -- -- -- --
11-11-2018 24 (14:40) 20.1 (00:00) 22.1 10 (02:20) 5 (17:50) -- -- -- -- --
10-11-2018 24.2 (13:10) 19.6 (00:00) 21.9 11.67 (09:20) 4.44 (02:10) -- -- -- -- --

Gráficas

Temp. máximas Temp. mínimas Temp. medias Precipitaciones Rachas de viento máximas Velocidades máximas media en intervalos de 10 minutos

Datos horarios

Fecha y hora oficial Temperatura (ºC) Velocidad del viento (km/h) Dirección del viento Racha (km/h) Dirección de racha Precipitación (mm) Presión (hPa) Tendencia (hPa) Humedad (%)
2018-12-09 23:00:00 21.9 2 Sur 17 Norte 0 1022 -0.2 45
2018-12-09 22:00:00 21.8 10 Noroeste 19 Noroeste 0 1021.6 -0.1 42
2018-12-09 21:00:00 20.8 10 Norte 17 Norte 0 1021.9 0.6 48
2018-12-09 20:00:00 20 0 Calma 7 Noroeste 0 1022.2 1.2 66
2018-12-09 19:00:00 20.6 4 Noroeste 12 Sur 0 1021.7 0.8 67
2018-12-09 18:00:00 21.4 5 Sur 14 Sur 0 1021.3 0.4 83
2018-12-09 17:00:00 22 8 Sur 17 Sur 0 1021 -0.2 80
2018-12-09 16:00:00 22 8 Sur 16 Sur 0 1020.9 -1.1 85
2018-12-09 15:00:00 22.3 10 Sur 15 Sudeste 0 1020.9 -1.7 84
2018-12-09 14:00:00 22.2 8 Sur 14 Sur 0 1021.2 -1.7 83
2018-12-09 13:00:00 22.1 8 Sur 17 Sur 0 1022 -0.7 83
2018-12-09 12:00:00 22.6 6 Sur 10 Sur 0 1022.6 0.3 75
2018-12-09 11:00:00 21.3 6 Sur 9 Sur 0 1022.9 1.4 85
2018-12-09 10:00:00 21 3 Norte 9 Noroeste 0 1022.7 1.8 60
2018-12-09 09:00:00 18.3 3 Noroeste 11 Noroeste 0 1022.3 1.7 56
2018-12-09 08:00:00 18.3 2 Noroeste 15 Norte 0 1021.5 0.6 50
2018-12-09 07:00:00 18.7 7 Noroeste 21 Norte 0 1020.9 -0.3 49
2018-12-09 06:00:00 17.4 6 Norte 13 Noroeste 0 1020.6 -0.7 55
2018-12-09 05:00:00 16.5 6 Noroeste 13 Noroeste 0 1020.9 -0.5 62
2018-12-09 04:00:00 16.6 7 Noroeste 13 Noroeste 0 1021.2 -0.5 60
2018-12-09 03:00:00 16.6 5 Noroeste 10 Noroeste 0 1021.3 -0.8 62
2018-12-09 02:00:00 17.6 7 Noroeste 15 Noroeste 0 1021.4 -1 59
2018-12-09 01:00:00 17.1 8 Noroeste 14 Noroeste 0 1021.7 -0.6 68
2018-12-09 00:00:00 17.5 6 Noroeste 13 Noroeste 0 1022.1 0.4 69
2018-12-08 23:00:00 17.9 9 Noroeste 14 Noroeste 0 1022.4 0.8 73
2018-12-08 22:00:00 18.1 6 Noroeste 9 Noroeste 0 1022.3 1 80
2018-12-08 21:00:00 18.9 6 Noroeste 11 Noroeste 0 1021.7 0.7 83
2018-12-08 20:00:00 19.7 6 Noroeste 9 Norte 0 1021.6 0.9 86
2018-12-08 19:00:00 21.1 0 Calma 6 Sudeste 0 1021.3 0.4 86
2018-12-08 18:00:00 21.5 4 Sur 10 Sudeste 0 1021 0.1 83
2018-12-08 17:00:00 22.6 6 Sudeste 11 Sudeste 0 1020.7 -0.4 79
2018-12-08 16:00:00 23.6 4 Sur 18 Sur 0 1020.9 -1.1 77
2018-12-08 15:00:00 21.9 15 Sur 22 Este 0 1020.9 -1.8 83
2018-12-08 14:00:00 22 9 Sudeste 22 Sudeste 0 1021.1 -2.1 85
2018-12-08 13:00:00 21.7 10 Sur 24 Sudeste 0 1022 -0.9 84
2018-12-08 12:00:00 24.4 6 Nordeste 31 Nordeste 0 1022.7 -0.1 65
2018-12-08 11:00:00 22 10 Sudeste 18 Sur 0 1023.2 1.2 85
2018-12-08 10:00:00 22 3 Sudeste 19 Nordeste 0 1022.9 1.5 73
2018-12-08 09:00:00 18.6 5 Noroeste 10 Noroeste 0 1022.8 1.7 76
2018-12-08 08:00:00 17.9 4 Noroeste 12 Noroeste 0 1022 1 72
2018-12-08 07:00:00 17.5 6 Noroeste 14 Noroeste 0 1021.4 0.5 75
2018-12-08 06:00:00 16.9 7 Noroeste 15 Noroeste 0 1021.1 -0.2 79
2018-12-08 05:00:00 17 8 Noroeste 13 Noroeste 0 1021 -0.4 79
2018-12-08 04:00:00 17.2 9 Noroeste 16 Noroeste 0 1020.9 -0.7 78
2018-12-08 03:00:00 17.3 8 Noroeste 15 Noroeste 0 1021.3 -0.3 76
2018-12-08 02:00:00 17.5 6 Norte 15 Noroeste 0 1021.4 -0.5 79
2018-12-08 01:00:00 17.6 6 Noroeste 14 Noroeste 0 1021.6 -0.5 77
2018-12-08 00:00:00 19.6 4 Nordeste 13 Noroeste 0 1021.6 -0.7 79
2018-12-07 23:00:00 18.5 6 Noroeste 12 Noroeste 0 1021.9 -0.2 72
2018-12-07 22:00:00 19 6 Noroeste 12 Noroeste 0 1022.1 0.5 71
2018-12-07 21:00:00 19.6 5 Noroeste 9 Noroeste 0 1022.3 0.8 72
2018-12-07 20:00:00 20.6 0 Calma 8 Noroeste 0 1022.1 0.8 75
2018-12-07 19:00:00 21.9 0 Calma 10 Sur 0 1021.6 0.4 86
2018-12-07 18:00:00 22.6 6 Sudeste 12 Sudeste 0 1021.5 0.3 79
2018-12-07 17:00:00 24.5 8 Sur 14 Sur 0 1021.3 -0.2 59
2018-12-07 16:00:00 26.5 4 Sur 13 Nordeste 0 1021.2 -1.1 49
2018-12-07 15:00:00 27.4 4 Este 14 Sur 0 1021.2 -1.8 48
2018-12-07 14:00:00 27.8 4 Sur 17 Sur 0 1021.5 -1.8 38
2018-12-07 13:00:00 27.9 2 Sur 24 Sur 0 1022.3 -0.4 39
2018-12-07 12:00:00 26.5 8 Sudoeste 17 Sur 0 1023 1.1 41
2018-12-07 11:00:00 25.1 5 Sur 19 Sur 0 1023.3 2.1 45
2018-12-07 10:00:00 23.8 10 Sur 20 Sudoeste 0 1022.7 2.7 52
2018-12-07 09:00:00 23.3 2 Noroeste 17 Noroeste 0 1021.9 2.4 42
2018-12-07 08:00:00 22.5 3 Norte 13 Noroeste 0 1021.2 2 56
2018-12-07 07:00:00 23.4 10 Norte 19 Noroeste 0 1020 0.5 35
2018-12-07 06:00:00 23.7 10 Norte 21 Noroeste 0 1019.5 0.2 35
2018-12-07 05:00:00 23.5 8 Norte 17 Noroeste 0 1019.2 0 36
2018-12-07 04:00:00 23.8 8 Norte 22 Noroeste 0 1019.5 0.1 35
2018-12-07 03:00:00 24.2 9 Noroeste 22 Norte 0 1019.3 -0.4 35
2018-12-07 02:00:00 24.1 12 Noroeste 22 Oeste 0 1019.2 -0.6 35
2018-12-07 01:00:00 24.1 12 Noroeste 24 Noroeste 0 1019.4 -0.1 35
2018-12-07 00:00:00 24.1 9 Norte 23 Noroeste 0 1019.7 0.7 35
2018-12-06 23:00:00 24 12 Noroeste 21 Noroeste 0 1019.8 1.3 35
2018-12-06 22:00:00 24.2 11 Noroeste 22 Noroeste 0 1019.5 1.3 35
2018-12-06 21:00:00 24.2 13 Noroeste 24 Noroeste 0 1019 1.1 36
2018-12-06 20:00:00 23.7 10 Noroeste 22 Noroeste 0 1018.5 0.8 38
2018-12-06 19:00:00 24 12 Noroeste 18 Noroeste 0 1018.2 0.7 40
2018-12-06 18:00:00 24.7 10 Noroeste 15 Noroeste 0 1017.9 0.4 43
2018-12-06 17:00:00 26.1 0 Calma 8 Sur 0 1017.7 0 44
2018-12-06 16:00:00 26.4 4 Sur 10 Sur 0 1017.5 -1 41
2018-12-06 15:00:00 26.6 3 Sudoeste 9 Sur 0 1017.5 -1.6 45
2018-12-06 14:00:00 25.9 5 Sur 12 Sudeste 0 1017.7 -1.7 51
2018-12-06 13:00:00 25.1 8 Sur 22 Sur 0 1018.5 -0.7 54
2018-12-06 12:00:00 24.2 9 Sudeste 15 Sudeste 0 1019.1 0.9 58
2018-12-06 11:00:00 24.6 5 Sur 13 Noroeste 0 1019.4 2 54
2018-12-06 10:00:00 24 5 Noroeste 15 Oeste 0 1019.2 2.4 47
2018-12-06 09:00:00 21.6 4 Norte 15 Noroeste 0 1018.2 1.9 48
2018-12-06 08:00:00 20.5 6 Noroeste 12 Norte 0 1017.4 1.2 47
2018-12-06 07:00:00 20.6 10 Noroeste 17 Noroeste 0 1016.8 0.5 45
2018-12-06 06:00:00 20.9 7 Norte 20 Noroeste 0 1016.3 -0.2 45
2018-12-06 05:00:00 20.6 9 Noroeste 22 Noroeste 0 1016.2 -0.5 45
2018-12-06 04:00:00 21.1 11 Norte 21 Noroeste 0 1016.3 -0.4 45
2018-12-06 03:00:00 21.2 13 Noroeste 21 Noroeste 0 1016.5 -0.4 44
2018-12-06 02:00:00 21.6 6 Noroeste 20 Noroeste 0 1016.7 0 44
2018-12-06 01:00:00 21.5 10 Noroeste 17 Noroeste 0 1016.7 0.4 45
2018-12-06 00:00:00 22.2 11 Noroeste 19 Noroeste 0 1016.9 0.8 44
2018-12-05 23:00:00 21.5 9 Noroeste 26 Noroeste 0 1016.7 1 46
2018-12-05 22:00:00 21.5 15 Noroeste 24 Noroeste 0 1016.3 0.8 47
2018-12-05 21:00:00 21.1 6 Norte 19 Noroeste 0 1016.1 1.1 49
2018-12-05 20:00:00 21.1 8 Noroeste 19 Noroeste 0 1015.7 0.8 51
2018-12-05 19:00:00 22.5 3 Sudoeste 19 Sudoeste 0 1015.5 0.8 54
2018-12-05 18:00:00 22.7 6 Sudoeste 18 Sur 0 1015 0.1 59
2018-12-05 17:00:00 24.2 5 Sur 14 Oeste 0 1014.9 -0.1 54
2018-12-05 16:00:00 24.8 7 Sudoeste 20 Sudoeste 0 1014.7 -0.8 53
2018-12-05 15:00:00 25 6 Sur 19 Sur 0 1014.9 -1.1 52
2018-12-05 14:00:00 24.4 9 Sur 18 Sur 0 1015 -1.4 56
2018-12-05 13:00:00 24.2 10 Sur 22 Sudeste 0 1015.5 -0.8 56
2018-12-05 12:00:00 24.8 10 Sudeste 20 Sudeste 0 1016 0.6 56
2018-12-05 11:00:00 24.1 13 Sur 36 Sur 0 1016.4 1.5 56
2018-12-05 10:00:00 24.2 9 Sur 14 Sur 0 1016.3 2.2 54
2018-12-05 09:00:00 21.8 6 Noroeste 15 Noroeste 0 1015.4 1.8 50
2018-12-05 08:00:00 20 6 Norte 20 Noroeste 0 1014.9 1.5 51
2018-12-05 07:00:00 19.9 10 Noroeste 22 Noroeste 0 1014.1 0.5 50
2018-12-05 06:00:00 20 12 Noroeste 20 Noroeste 0 1013.6 -0.3 49
2018-12-05 05:00:00 19.6 10 Noroeste 21 Noroeste 0 1013.4 -0.6 48
2018-12-05 04:00:00 19.4 10 Noroeste 19 Noroeste 0 1013.6 -0.9 47
2018-12-05 03:00:00 19.8 9 Noroeste 18 Noroeste 0 1013.9 -0.9 46
2018-12-05 02:00:00 19.6 9 Norte 20 Noroeste 0 1014 -1 48
2018-12-05 01:00:00 19.8 10 Noroeste 18 Noroeste 0 1014.5 -0.4 50
2018-12-05 00:00:00 19.6 8 Norte 15 Noroeste 0 1014.8 -0.4 53
2018-12-04 23:00:00 19.4 8 Noroeste 15 Noroeste 0 1015 0.4 58
2018-12-04 22:00:00 19 8 Norte 14 Norte 0 1014.9 0.9 65
2018-12-04 21:00:00 19.6 6 Noroeste 13 Noroeste 0 1015.2 1.4 68
2018-12-04 20:00:00 19.5 7 Noroeste 12 Noroeste 0 1014.6 0.9 74
2018-12-04 19:00:00 21.3 3 Sudoeste 10 Sudeste 0 1014 0.8 77
2018-12-04 18:00:00 21.9 9 Sur 15 Sur 0 1013.8 0.3 74
2018-12-04 17:00:00 23.3 5 Sur 19 Sur 0 1013.7 -0.6 67
2018-12-04 16:00:00 23.2 9 Sur 20 Sur 0 1013.2 -2 68
2018-12-04 15:00:00 24 8 Sur 21 Sur 0 1013.5 -2.4 66
2018-12-04 14:00:00 23.3 10 Sur 27 Sur 0 1014.3 -2.2 65
2018-12-04 13:00:00 23.5 14 Sur 30 Sur 0 1015.2 -1.1 57
2018-12-04 12:00:00 23.8 14 Sur 37 Sur 0 1015.9 0 53
2018-12-04 11:00:00 23.7 18 Sur 30 Sudeste 0 1016.5 0.9 50
2018-12-04 10:00:00 23.6 12 Sur 27 Sur 0 1016.3 1.1 52
2018-12-04 09:00:00 22.4 6 Sur 18 Sur 0 1015.9 1.4 65
2018-12-04 08:00:00 19.6 0 Calma 13 Noroeste 0 1015.6 1.1 47
2018-12-04 07:00:00 19.8 6 Norte 16 Noroeste 0 1015.2 0.3 43
2018-12-04 06:00:00 19.1 9 Norte 16 Noroeste 0 1014.5 -0.9 44
2018-12-04 05:00:00 19.1 7 Norte 19 Noroeste 0 1014.5 -1.2 44
2018-12-04 04:00:00 18.9 8 Norte 17 Norte 0 1014.9 -1.3 44
2018-12-04 03:00:00 18.4 8 Noroeste 20 Noroeste 0 1015.4 -1.4 46
2018-12-04 02:00:00 18.4 10 Norte 19 Noroeste 0 1015.7 -1.3 46
2018-12-04 01:00:00 17.9 11 Noroeste 21 Noroeste 0 1016.2 -1 48
2018-12-04 00:00:00 18 7 Noroeste 15 Noroeste 0 1016.8 -0.1 49
2018-12-03 23:00:00 18.1 8 Noroeste 15 Noroeste 0 1017 0.1 50
2018-12-03 22:00:00 17.4 7 Noroeste 13 Norte 0 1017.2 0.7 56
2018-12-03 21:00:00 18.1 6 Noroeste 14 Noroeste 0 1016.9 0.4 61
2018-12-03 20:00:00 18.5 6 Noroeste 13 Noroeste 0 1016.9 0.7 74
2018-12-03 19:00:00 19.9 3 Noroeste 13 Sur 0 1016.5 0.3 80
2018-12-03 18:00:00 20.7 8 Sur 23 Sur 0 1016.5 0.1 83
2018-12-03 17:00:00 21.5 12 Sur 23 Sur 0 1016.2 -0.7 80
2018-12-03 16:00:00 21.9 9 Sur 21 Sudeste 0 1016.2 -1.6 78
2018-12-03 15:00:00 21.6 12 Sur 23 Sur 0 1016.4 -2.4 79
2018-12-03 14:00:00 21.1 14 Sur 23 Sur 0 1016.9 -2.2 85
2018-12-03 13:00:00 21.2 14 Sur 26 Sur 0 1017.8 -1 84
2018-12-03 12:00:00 20.8 14 Sur 25 Sur 0 1018.8 0 83
2018-12-03 11:00:00 20.8 18 Sur 29 Sur 0 1019.1 1 76
2018-12-03 10:00:00 22.4 8 Sudoeste 29 Oeste 0 1018.8 1 58
2018-12-03 09:00:00 17.5 5 Norte 13 Noroeste 0 1018.8 1.5 68
2018-12-03 08:00:00 15.3 7 Noroeste 14 Noroeste 0 1018.1 0.4 71
2018-12-03 07:00:00 15.2 9 Noroeste 15 Noroeste 0 1017.8 -0.4 71
2018-12-03 06:00:00 15.5 9 Noroeste 15 Noroeste 0 1017.3 -1.1 71
2018-12-03 05:00:00 15.5 9 Noroeste 15 Noroeste 0 1017.7 -1.2 74
2018-12-03 04:00:00 16.1 6 Noroeste 12 Noroeste 0 1018.2 -1.2 74
2018-12-03 03:00:00 16.8 5 Noroeste 11 Noroeste 0 1018.4 -1.6 73
2018-12-03 02:00:00 17 7 Noroeste 13 Noroeste 0 1018.9 -1.4 74
2018-12-03 01:00:00 17 8 Noroeste 14 Noroeste 0 1019.4 -1 76
2018-12-03 00:00:00 17.2 6 Noroeste 15 Noroeste 0 1020 0 78
2018-12-02 23:00:00 17.5 9 Noroeste 14 Noroeste 0 1020.3 0.6 78
2018-12-02 22:00:00 18.1 7 Noroeste 14 Noroeste 0 1020.4 0.8 80
2018-12-02 21:00:00 18.9 5 Noroeste 10 Noroeste 0 1020 0.8 80
2018-12-02 20:00:00 20 3 Sudoeste 9 Sur 0 1019.7 0.7 79
2018-12-02 19:00:00 20.5 3 Sur 14 Sudeste 0 1019.6 0.8 78
2018-12-02 18:00:00 20.6 6 Sudeste 19 Sudeste 0 1019.2 0.4 77
2018-12-02 17:00:00 21.4 6 Sudeste 18 Sudeste 0 1019 -0.4 75
2018-12-02 16:00:00 23.4 5 Sudeste 13 Sur 0 1018.8 -1.6 66
2018-12-02 15:00:00 24 4 Este 25 Nordeste 0 1018.8 -3 64
2018-12-02 14:00:00 22.6 10 Nordeste 24 Este 0 1019.4 -3 69
2018-12-02 13:00:00 23.5 4 Sudeste 16 Sur 0 1020.4 -1.5 67
2018-12-02 12:00:00 21.6 8 Sudeste 19 Sudeste 0 1021.8 0.5 73
2018-12-02 11:00:00 21.1 6 Sudeste 18 Sur 0 1022.4 1.5 73
2018-12-02 10:00:00 21.7 4 Nordeste 13 Noroeste 0 1021.9 1.9 71
2018-12-02 09:00:00 20 7 Norte 13 Nordeste 0 1021.3 1.6 74
2018-12-02 08:00:00 18.9 6 Noroeste 23 Noroeste 0 1020.9 1.3 77
2018-12-02 07:00:00 19.5 10 Norte 36 Norte 0 1020 0.2 75
2018-12-02 06:00:00 19.7 15 Norte 30 Nordeste 0 1019.7 -0.1 77
2018-12-02 05:00:00 19.7 8 Norte 23 Norte 0 1019.6 -0.7 77
2018-12-02 04:00:00 20 13 Norte 30 Noroeste 0 1019.8 -0.7 77
2018-12-02 03:00:00 20.1 14 Norte 40 Noroeste 0 1019.8 -1.2 77
2018-12-02 02:00:00 20.2 15 Noroeste 38 Norte 0 1020.3 -0.7 77
2018-12-02 01:00:00 20.3 11 Norte 24 Noroeste 0 1020.5 -0.7 80
2018-12-02 00:00:00 20.6 11 Norte 26 Norte 0 1021 -0.1 80
2018-12-01 23:00:00 19.7 4 Noroeste 10 Norte 0 1021 0.4 80
2018-12-01 22:00:00 19.3 5 Noroeste 10 Norte 0 1021.2 1.1 81
2018-12-01 21:00:00 19.4 5 Noroeste 10 Noroeste 0 1021.1 1.3 81
2018-12-01 20:00:00 20.6 0 Calma 9 Sur 0 1020.6 1 78
2018-12-01 19:00:00 21.1 0 Calma 21 Sur 0 1020.1 0.7 76
2018-12-01 18:00:00 21.2 11 Sur 18 Sur 0 1019.8 0.6 77
2018-12-01 17:00:00 21.7 9 Sur 19 Sur 0 1019.6 0 75
2018-12-01 16:00:00 21.9 11 Sur 20 Sur 0 1019.4 -1.1 74
2018-12-01 15:00:00 22.8 9 Nordeste 36 Nordeste 0 1019.2 -2.6 71
2018-12-01 14:00:00 23.5 9 Nordeste 19 Nordeste 0 1019.6 -2.8 65
2018-12-01 13:00:00 23.1 9 Nordeste 20 Nordeste 0 1020.5 -1.4 72
2018-12-01 12:00:00 22 7 Sur 14 Sur 0 1021.8 0.4 74
2018-12-01 11:00:00 21.9 6 Sur 13 Sur 0 1022.4 1.3 72
2018-12-01 10:00:00 22.2 0 Calma 13 Norte 0 1021.9 1.4 69
2018-12-01 09:00:00 17.9 8 Norte 15 Noroeste 0 1021.4 1.6 73
2018-12-01 08:00:00 16.9 11 Noroeste 15 Noroeste 0 1021.1 1.6 77
2018-12-01 07:00:00 17 7 Noroeste 13 Noroeste 0 1020.5 0.7 79
2018-12-01 06:00:00 17.7 6 Noroeste 12 Noroeste 0 1019.8 0.1 76
2018-12-01 05:00:00 18.5 6 Noroeste 15 Noroeste 0 1019.5 -0.5 77
2018-12-01 04:00:00 18.9 6 Noroeste 14 Norte 0 1019.8 -0.4 77
2018-12-01 03:00:00 18.3 8 Noroeste 17 Norte 0 1019.7 -1 77
2018-12-01 02:00:00 18.8 8 Noroeste 16 Norte 0 1020 -1 77
2018-12-01 01:00:00 17.9 8 Noroeste 15 Norte 0 1020.2 -0.7 74
2018-12-01 00:00:00 19.5 6 Norte 23 Norte 0 1020.7 0.4 73
2018-11-30 23:00:00 19.9 16 Norte 27 Norte 0 1021 0.8 75
2018-11-30 22:00:00 19.9 8 Norte 20 Norte 0 1020.9 1.3 74
2018-11-30 21:00:00 20.3 8 Norte 24 Nordeste 0 1020.3 1 71
2018-11-30 20:00:00 20.2 5 Norte 12 Noroeste 0 1020.2 1.2 70
2018-11-30 19:00:00 20.6 8 Norte 19 Noroeste 0 1019.6 0.7 72
2018-11-30 18:00:00 21.1 9 Noroeste 17 Oeste 0 1019.3 0.3 72
2018-11-30 17:00:00 23.6 0 Calma 24 Nordeste 0 1019 -0.6 72
2018-11-30 16:00:00 23.8 3 Sudeste 13 Este 0 1018.9 -1.5 73
2018-11-30 15:00:00 23.6 4 Sudeste 12 Sudeste 0 1019 -2.1 72
2018-11-30 14:00:00 23.5 5 Sudeste 14 Sur 0 1019.6 -1.8 74
2018-11-30 13:00:00 23.6 5 Sudeste 13 Sur 0 1020.4 -1.2 72
2018-11-30 12:00:00 23.8 3 Sudeste 15 Sur 0 1021.1 0.2 71
2018-11-30 11:00:00 22.4 8 Sudeste 12 Sur 0 1021.4 1.4 74
2018-11-30 10:00:00 22.9 2 Sudeste 8 Sudeste 0 1021.6 2 68
2018-11-30 09:00:00 19.1 3 Oeste 9 Noroeste 0 1020.9 1.9 61
2018-11-30 08:00:00 17.4 5 Noroeste 14 Norte 0 1020 0.9 63
2018-11-30 07:00:00 17.5 10 Noroeste 16 Noroeste 0 1019.6 0.3 63
2018-11-30 06:00:00 17.7 8 Noroeste 15 Noroeste 0 1019 -0.3 68
2018-11-30 05:00:00 18.6 10 Noroeste 22 Norte 0 1019.1 -0.4 74
2018-11-30 04:00:00 19.1 9 Noroeste 14 Noroeste 0 1019.3 -0.8 71
2018-11-30 03:00:00 18.5 6 Norte 10 Noroeste 0 1019.3 -1 63
2018-11-30 02:00:00 19.3 5 Norte 17 Norte 0 1019.5 -1.1 61
2018-11-30 01:00:00 20.3 7 Norte 26 Nordeste 0 1020.1 -0.5 68
2018-11-30 00:00:00 20.5 9 Norte 25 Norte 0 1020.3 0.4 75
2018-11-29 23:00:00 20.4 18 Norte 38 Norte 0 1020.6 1 79
2018-11-29 22:00:00 20.7 14 Norte 31 Norte 0 1020.6 1.5 78
2018-11-29 21:00:00 20.6 17 Norte 32 Norte 0 1019.9 1.3 79
2018-11-29 20:00:00 20.4 9 Norte 22 Norte 0 1019.6 1.3 79
2018-11-29 19:00:00 20.8 0 Calma 9 Sur 0 1019.1 1.1 84
2018-11-29 18:00:00 21.4 4 Sur 8 Sur 0 1018.6 0.5 83
2018-11-29 17:00:00 23.3 3 Sudeste 11 Sudeste 0 1018.3 -0.2 77
2018-11-29 16:00:00 22.8 7 Sudeste 13 Sudeste 0 1018 -1.3 77
2018-11-29 15:00:00 22.7 9 Sur 15 Sur 0 1018.1 -2.2 77
2018-11-29 14:00:00 22.7 10 Sur 16 Sur 0 1018.5 -1.7 75
2018-11-29 13:00:00 22.7 7 Sudeste 18 Sur 0 1019.3 -0.9 78
2018-11-29 12:00:00 22.5 9 Sur 14 Sur 0 1020.3 0.6 69
2018-11-29 11:00:00 22 9 Sur 12 Sur 0 1020.2 0.8 78
2018-11-29 10:00:00 22 4 Sur 10 Noroeste 0 1020.2 1.2 72
2018-11-29 09:00:00 20.2 6 Noroeste 16 Norte 0 1019.7 0.8 69
2018-11-29 08:00:00 18 10 Noroeste 14 Noroeste 0 1019.4 0.6 74
2018-11-29 07:00:00 18.5 6 Noroeste 14 Noroeste 0 1019 0.5 74
2018-11-29 06:00:00 17.1 12 Noroeste 17 Noroeste 0 1018.9 0.5 72
2018-11-29 05:00:00 17.2 7 Noroeste 14 Noroeste 0 1018.8 0.3 71
2018-11-29 04:00:00 17.2 6 Noroeste 12 Noroeste 0 1018.5 0 69
2018-11-29 03:00:00 17 6 Noroeste 10 Noroeste 0 1018.4 -0.4 65
2018-11-29 02:00:00 17 7 Noroeste 11 Noroeste 0 1018.5 -0.5 63
2018-11-29 01:00:00 17.6 4 Norte 8 Norte 0 1018.5 -0.7 63
2018-11-29 00:00:00 17.6 4 Noroeste 7 Noroeste 0 1018.8 -0.2 69
2018-11-28 23:00:00 18.2 0 Calma 13 Noroeste 0 1019 0.2 75
2018-11-28 22:00:00 17.9 9 Noroeste 23 Noroeste 0 1019.2 0.9 85
2018-11-28 21:00:00 19.3 0 Calma 8 Noroeste 0 1019 1.2 85
2018-11-28 20:00:00 19.2 6 Noroeste 10 Noroeste 0 1018.8 0.9 85
2018-11-28 12:00:00 22 9 Sudeste 18 Sudeste 0 1019.3 0.2 73
2018-11-28 11:00:00 22.5 6 Sudeste 18 Nordeste 0 1019.7 1.1 69
2018-11-28 10:00:00 22 3 Nordeste 21 Norte 0 1019.7 1.3 70
2018-11-28 09:00:00 19.7 7 Norte 24 Nordeste 0 1019.1 1 76
2018-11-28 08:00:00 16.9 8 Noroeste 20 Norte 0 1018.6 0.5 77
2018-11-28 07:00:00 16.5 9 Noroeste 17 Noroeste 0 1018.4 0.5 79
2018-11-28 06:00:00 16.7 9 Noroeste 15 Noroeste 0 1018.1 0.2 79
2018-11-28 05:00:00 16.9 9 Noroeste 14 Noroeste 0 1018.1 0 80
2018-11-28 04:00:00 17.4 8 Noroeste 14 Noroeste 0 1017.9 -0.2 80
2018-11-28 03:00:00 17.4 9 Noroeste 15 Noroeste 0 1017.9 -0.5 81
2018-11-28 02:00:00 18.4 6 Noroeste 14 Noroeste 0 1018.1 -0.4 77
2018-11-28 01:00:00 18.1 8 Noroeste 13 Noroeste 0 1018.1 -0.3 83
2018-11-28 00:00:00 19.3 5 Noroeste 8 Noroeste 0 1018.4 0.2 80
2018-11-27 23:00:00 20.2 4 Norte 16 Norte 0 1018.5 1 78
2018-11-27 22:00:00 20.4 10 Norte 24 Noroeste 0 1018.4 1 80
2018-11-27 21:00:00 20.7 12 Noroeste 25 Oeste 0 1018.2 1.1 81
2018-11-27 20:00:00 21.1 9 Noroeste 22 Norte 0 1017.5 0.6 79
2018-11-27 19:00:00 21.1 8 Noroeste 26 Noroeste 0 1017.4 0.3 78
2018-11-27 18:00:00 21.2 13 Norte 32 Noroeste 0 1017.1 -0.1 77
2018-11-27 17:00:00 22 13 Noroeste 30 Noroeste 0 1016.9 -0.9 72
2018-11-27 16:00:00 23 0 Calma 18 Nordeste 0 1017.1 -1.5 71
2018-11-27 15:00:00 21.8 7 Sur 16 Sur 0 1017.2 -2 81
2018-11-27 14:00:00 22.1 8 Sur 18 Sur 0 1017.8 -1.7 80
2018-11-27 13:00:00 22.3 9 Sur 18 Sur 0 1018.6 -0.8 78
2018-11-27 12:00:00 21.8 11 Sur 18 Sur 0 1019.2 0.4 80
2018-11-27 11:00:00 21.4 14 Sur 20 Sudeste 0 1019.5 0.9 82
2018-11-27 10:00:00 21.9 10 Sur 16 Sur 0 1019.4 1.3 82
2018-11-27 09:00:00 20.2 6 Norte 12 Noroeste 0 1018.8 1.2 84
2018-11-27 08:00:00 19.2 4 Noroeste 9 Noroeste 0 1018.6 1.1 89
2018-11-27 07:00:00 20.2 3 Norte 13 Noroeste 0 1018.1 0.1 86
2018-11-27 06:00:00 20.3 8 Norte 20 Norte 0 1017.6 -0.9 86
2018-11-27 05:00:00 20.6 8 Norte 19 Norte 0 1017.5 -1.3 83
2018-11-27 04:00:00 19.8 6 Noroeste 15 Norte 0 1018 -1.4 83
2018-11-27 03:00:00 20.1 6 Noroeste 10 Noroeste 0 1018.5 -1.4 83
2018-11-27 02:00:00 20.5 7 Noroeste 13 Noroeste 0 1018.8 -1 82
2018-11-27 01:00:00 19.7 3 Norte 8 Noroeste 0.1 1019.4 -0.2 86
2018-11-27 00:00:00 19.5 7 Noroeste 13 Noroeste 0.1 1019.9 0.7 84
2018-11-26 23:00:00 19.5 6 Noroeste 17 Noroeste 0 1019.8 1.3 83
2018-11-26 22:00:00 20 6 Norte 15 Noroeste 0 1019.6 1.4 83
2018-11-26 21:00:00 20.5 0 Calma 10 Oeste 0 1019.2 1 86
2018-11-26 20:00:00 21 0 Calma 18 Norte 0 1018.5 0.4 80
2018-11-26 19:00:00 21.2 4 Nordeste 18 Nordeste 0 1018.2 -0.2 83
2018-11-26 18:00:00 21.3 9 Norte 22 Norte 0 1018.2 -0.3 80
2018-11-26 17:00:00 22 7 Norte 21 Noroeste 0 1018.1 -0.7 78
2018-11-26 16:00:00 22.3 4 Oeste 17 Sur 0 1018.4 -1.1 78
2018-11-26 15:00:00 21.8 6 Sur 17 Sur 0 1018.5 -2 80
2018-11-26 14:00:00 22.1 13 Sur 26 Sur 0 1018.8 -1.7 79
2018-11-26 13:00:00 22.5 16 Sur 26 Sur 0 1019.5 -0.8 77
2018-11-26 12:00:00 23.6 12 Norte 27 Noroeste 0 1020.5 0.8 66
2018-11-26 11:00:00 23.1 8 Noroeste 36 Noroeste 0 1020.5 1.1 68
2018-11-26 10:00:00 22.4 4 Norte 19 Noroeste 0 1020.3 1.5 74
2018-11-26 09:00:00 20 6 Norte 12 Norte 0 1019.7 1 80
2018-11-26 08:00:00 18.1 8 Norte 14 Noroeste 0 1019.4 0.6 86
2018-11-26 07:00:00 18.2 8 Noroeste 14 Noroeste 0 1018.8 -0.4 86
2018-11-26 06:00:00 18.1 7 Norte 13 Noroeste 0 1018.7 -1.2 86
2018-11-26 05:00:00 18.5 5 Noroeste 13 Noroeste 0 1018.8 -1.4 86
2018-11-26 04:00:00 18.7 8 Noroeste 13 Noroeste 0 1019.2 -1.6 86
2018-11-26 03:00:00 19.2 7 Norte 12 Noroeste 0 1019.9 -1.4 85
2018-11-26 02:00:00 20 5 Norte 12 Noroeste 0 1020.2 -1.3 81
2018-11-26 01:00:00 19.8 8 Noroeste 15 Noroeste 0 1020.8 -0.6 83
2018-11-26 00:00:00 20.1 3 Noroeste 12 Noroeste 0 1021.3 0.1 87
2018-11-25 23:00:00 20.9 0 Calma 8 Este 0 1021.5 0.9 88
2018-11-25 22:00:00 21.3 6 Nordeste 13 Noroeste 0 1021.4 1.3 84
2018-11-25 21:00:00 21.7 8 Norte 22 Norte 0 1021.2 1.5 82
2018-11-25 20:00:00 22 12 Norte 29 Norte 0 1020.6 1.2 79
2018-11-25 19:00:00 22 17 Norte 33 Norte 0 1020.1 0.5 78
2018-11-25 18:00:00 22.4 14 Norte 30 Norte 0 1019.7 0.1 76
2018-11-25 17:00:00 23.8 13 Norte 28 Noroeste 0 1019.4 -0.8 72
2018-11-25 16:00:00 23.9 10 Norte 34 Norte 0 1019.6 -1.3 71
2018-11-25 15:00:00 24.3 13 Norte 35 Nordeste 0 1019.6 -1.6 74
2018-11-25 14:00:00 22.3 14 Sur 33 Norte 0 1020.2 -1.4 83
2018-11-25 13:00:00 23.2 4 Este 22 Sudeste 0 1020.9 -0.3 79
2018-11-25 12:00:00 21.9 13 Sur 20 Sur 0 1021.2 0.3 85
2018-11-25 11:00:00 22.2 15 Sur 24 Sur 0 1021.6 1 81
2018-11-25 10:00:00 22.1 5 Sur 25 Noroeste 0 1021.2 1.2 80
2018-11-25 09:00:00 21.1 6 Norte 18 Nordeste 0 1020.9 1.5 83
2018-11-25 08:00:00 18.5 8 Noroeste 14 Norte 0 1020.6 1 89
2018-11-25 07:00:00 19.4 0 Calma 8 Norte 0 1020 0.2 83
2018-11-25 06:00:00 18.3 5 Noroeste 15 Norte 0 1019.4 -0.6 87
2018-11-25 05:00:00 18.1 9 Noroeste 16 Noroeste 0 1019.6 -0.5 88
2018-11-25 04:00:00 18.5 7 Noroeste 14 Norte 0 1019.8 -0.5 86
2018-11-25 03:00:00 18.4 6 Norte 15 Noroeste 0 1020 -0.5 86
2018-11-25 02:00:00 18.1 7 Noroeste 14 Noroeste 0 1020.1 -0.8 86
2018-11-25 01:00:00 17.8 6 Noroeste 12 Noroeste 0 1020.3 -0.3 86
2018-11-25 00:00:00 17.8 7 Noroeste 13 Noroeste 0 1020.5 -0.2 85
2018-11-24 23:00:00 18.4 4 Noroeste 12 Noroeste 0 1020.9 0.4 80
2018-11-24 22:00:00 18.1 8 Noroeste 15 Noroeste 0 1020.6 0.8 80
2018-11-24 21:00:00 18.5 7 Norte 12 Noroeste 0 1020.7 1.2 77
2018-11-24 20:00:00 18.8 6 Norte 12 Noroeste 0 1020.5 1 74
2018-11-24 19:00:00 19.6 5 Noroeste 9 Noroeste 0 1019.8 0.5 71
2018-11-24 18:00:00 21.1 0 Calma 8 Sur 0 1019.5 0.1 67
2018-11-24 17:00:00 22.2 4 Sudeste 11 Sur 0 1019.5 -0.1 63
2018-11-24 16:00:00 22.6 3 Este 15 Nordeste 0 1019.3 -0.8 61
2018-11-24 15:00:00 21.9 4 Este 13 Este 0 1019.4 -1.4 63
2018-11-24 14:00:00 22.3 4 Este 14 Nordeste 0 1019.6 -1.7 61
2018-11-24 13:00:00 22.1 5 Este 12 Este 0 1020.1 -1.5 59
2018-11-24 12:00:00 20.8 7 Sur 14 Sudeste 0 1020.8 -0.1 63
2018-11-24 11:00:00 20.2 8 Sur 14 Sur 0 1021.3 0.9 65
2018-11-24 10:00:00 19.7 9 Sur 13 Sur 0 1021.6 1.6 65
2018-11-24 09:00:00 17.1 5 Norte 14 Noroeste 0 1020.9 1.1 73
2018-11-24 08:00:00 14.7 8 Norte 18 Noroeste 0 1020.4 0.5 78
2018-11-24 07:00:00 14.6 9 Noroeste 18 Noroeste 0 1020 -0.1 80
2018-11-24 06:00:00 14.9 8 Noroeste 16 Noroeste 0 1019.8 -0.6 77
2018-11-24 05:00:00 15.4 11 Noroeste 18 Noroeste 0 1019.9 -0.6 73
2018-11-24 04:00:00 15.3 11 Noroeste 18 Noroeste 0 1020.1 -0.1 74
2018-11-24 03:00:00 15.1 11 Noroeste 15 Noroeste 0 1020.4 0.1 73
2018-11-24 02:00:00 15.5 10 Noroeste 16 Noroeste 0 1020.5 0.1 72
2018-11-24 01:00:00 15.9 10 Noroeste 14 Noroeste 0 1020.2 -0.2 74
2018-11-24 00:00:00 16.9 10 Noroeste 14 Noroeste 0 1020.3 0.1 71
2018-11-23 23:00:00 17 9 Noroeste 17 Noroeste 0 1020.4 1 71
2018-11-23 22:00:00 17.5 8 Noroeste 25 Noroeste 0 1020.4 1.3 70
2018-11-23 21:00:00 18 11 Noroeste 27 Norte 0 1020.2 1.7 66
2018-11-23 20:00:00 18.4 12 Noroeste 30 Noroeste 0 1019.4 1.6 64
2018-11-23 19:00:00 18.5 9 Noroeste 27 Norte 0 1019.1 1.7 65
2018-11-23 18:00:00 18.9 9 Noroeste 30 Noroeste 0 1018.5 1.1 63
2018-11-23 17:00:00 19.7 9 Noroeste 34 Oeste 0 1017.8 0.6 60
2018-11-23 16:00:00 20.3 15 Noroeste 40 Noroeste 0 1017.4 -0.4 59
2018-11-23 15:00:00 20.2 10 Noroeste 42 Noroeste 0 1017.4 -1.3 65
2018-11-23 14:00:00 20 15 Norte 41 Norte 0 1017.2 -1.9 65
2018-11-23 13:00:00 19.7 15 Noroeste 36 Noroeste 0 1017.8 -1 67
2018-11-23 12:00:00 19.4 14 Norte 36 Norte 0 1018.7 1.1 71
2018-11-23 11:00:00 18.1 8 Norte 41 Noroeste 0 1019.1 1.8 79
2018-11-23 10:00:00 17.7 15 Norte 44 Noroeste 0.3 1018.8 2.4 74
2018-11-23 09:00:00 17.7 16 Norte 42 Nordeste 0 1017.6 1.9 71
2018-11-23 08:00:00 17.1 17 Norte 42 Norte 0.1 1017.3 2.1 74
2018-11-23 07:00:00 15.5 16 Norte 36 Oeste 0.8 1016.4 1.5 79
2018-11-23 06:00:00 17 14 Norte 32 Norte 0.6 1015.7 0.5 72
2018-11-23 05:00:00 17.5 13 Norte 37 Norte 0.2 1015.2 0.6 68
2018-11-23 04:00:00 17 10 Noroeste 34 Norte 0 1014.9 0 70
2018-11-23 03:00:00 17.5 14 Norte 40 Norte 0 1015.2 -0.2 70
2018-11-23 02:00:00 17.2 12 Norte 32 Nordeste 0 1014.6 -0.1 70
2018-11-23 01:00:00 16.8 15 Norte 36 Norte 0 1014.9 -0.2 75
2018-11-23 00:00:00 16.3 9 Noroeste 32 Norte 1.4 1015.4 0.5 83
2018-11-22 23:00:00 16.9 14 Norte 40 Noroeste 0.2 1014.7 0.7 77
2018-11-22 22:00:00 16.7 14 Norte 27 Noroeste 0.2 1015.1 1.7 80
2018-11-22 21:00:00 15.5 11 Noroeste 26 Norte 6.5 1014.9 2.1 93
2018-11-22 20:00:00 17.9 13 Norte 27 Norte 0 1014 1.2 75
2018-11-22 19:00:00 17.3 8 Noroeste 26 Noroeste 0 1013.4 1.4 80
2018-11-22 18:00:00 16.9 15 Norte 39 Nordeste 4.1 1012.8 1.2 82
2018-11-22 17:00:00 15.9 15 Norte 44 Norte 12.7 1012.8 0.7 92
2018-11-22 16:00:00 17.5 24 Norte 47 Norte 0 1012 -0.8 85
2018-11-22 15:00:00 20.1 9 Norte 37 Norte 0 1011.6 -1.8 77
2018-11-22 14:00:00 20.2 15 Noroeste 35 Norte 0 1012.1 -2.1 72
2018-11-22 13:00:00 19.9 13 Norte 33 Noroeste 0 1012.8 -0.6 77
2018-11-22 12:00:00 18.9 9 Noroeste 41 Oeste 1.1 1013.4 0.1 82
2018-11-22 11:00:00 18 19 Noroeste 34 Noroeste 0.2 1014.2 1.9 83
2018-11-22 10:00:00 20.8 7 Norte 20 Norte 0 1013.4 1.7 67
2018-11-22 09:00:00 18.8 3 Norte 12 Noroeste 0 1013.3 1.8 71
2018-11-22 08:00:00 18.8 0 Calma 17 Noroeste 0 1012.3 0.6 68
2018-11-22 07:00:00 18.6 5 Noroeste 13 Nordeste 0 1011.7 -0.3 66
2018-11-22 06:00:00 18.9 7 Norte 16 Noroeste 0 1011.5 -1.2 63
2018-11-22 05:00:00 18.8 6 Noroeste 20 Norte 0 1011.7 -1.1 61
2018-11-22 04:00:00 19.2 0 Calma 21 Noroeste 0 1012 -1.3 59
2018-11-22 03:00:00 19.2 8 Noroeste 19 Norte 0 1012.7 -1.1 59
2018-11-22 02:00:00 19.2 9 Noroeste 17 Noroeste 0 1012.8 -1.2 63
2018-11-22 01:00:00 19.4 7 Norte 18 Noroeste 0 1013.3 -0.6 70
2018-11-22 00:00:00 19.6 8 Norte 18 Noroeste 0 1013.8 -0.2 71
2018-11-21 23:00:00 19.4 6 Norte 15 Oeste 0 1014 0.6 69
2018-11-21 22:00:00 19.5 6 Norte 17 Noroeste 0 1013.9 0.8 71
2018-11-21 21:00:00 19.3 10 Noroeste 18 Noroeste 0 1014 0.9 70
2018-11-21 20:00:00 18.9 10 Noroeste 23 Noroeste 0 1013.4 0.4 70
2018-11-21 19:00:00 18.5 12 Noroeste 31 Noroeste 0 1013.1 0.4 74
2018-11-21 18:00:00 18.2 16 Norte 42 Nordeste 0 1013.1 0.4 81
2018-11-21 17:00:00 19 13 Noroeste 35 Nordeste 0.1 1013 -0.2 82
2018-11-21 16:00:00 21 3 Sudeste 36 Sudoeste 0.3 1012.7 -1.4 81
2018-11-21 15:00:00 20.9 21 Sur 36 Sur 0 1012.7 -2.1 86
2018-11-21 14:00:00 21.6 17 Sur 37 Sur 0 1013.2 -2.3 78
2018-11-21 13:00:00 21.5 19 Sur 37 Sur -- 1014.1 -1.2 78
2018-11-21 12:00:00 22.1 19 Sur -- -- -- 1014.8 -0.2 74
2018-11-21 11:00:00 21.6 20 Sur 35 Sur -- 1015.5 1 78
2018-11-21 10:00:00 21.4 9 Sur 32 Sur -- 1015.3 1.2 76
2018-11-21 09:00:00 20.6 11 Sur 26 Sur -- 1015 0.8 77
2018-11-21 08:00:00 20.3 10 Sudoeste 22 Sur -- 1014.5 0.2 80
2018-11-21 07:00:00 18.9 3 Sudoeste 15 Oeste -- 1014.1 -0.2 82
2018-11-21 06:00:00 18.3 0 Calma 12 Noroeste -- 1014.2 -0.3 82
2018-11-21 05:00:00 17.8 8 Noroeste 14 Norte -- 1014.3 -0.3 81
2018-11-21 04:00:00 17.7 8 Noroeste 15 Noroeste -- 1014.3 -1 81
2018-11-21 03:00:00 17.6 8 Norte 16 Noroeste -- 1014.5 -1.1 81
2018-11-21 02:00:00 17.8 9 Noroeste 17 Noroeste -- 1014.6 -1.3 80
2018-11-21 01:00:00 18.2 8 Norte 15 Norte -- 1015.3 -0.5 78
2018-11-21 00:00:00 17.9 9 Noroeste 16 Noroeste -- 1015.6 0.1 80
2018-11-20 23:00:00 17.9 8 Noroeste 16 Noroeste -- 1015.9 0.4 82
2018-11-20 22:00:00 18.6 5 Norte 12 Noroeste -- 1015.8 1.4 83
2018-11-20 21:00:00 19.1 5 Norte 12 Noroeste -- 1015.5 1.2 83
2018-11-20 20:00:00 19.5 5 Noroeste 11 Norte -- 1015.5 1.3 82
2018-11-20 19:00:00 20.7 4 Norte 10 Noroeste -- 1014.4 0.1 77
2018-11-20 18:00:00 21.2 3 Nordeste 19 Nordeste -- 1014.3 -0.3 76
2018-11-20 17:00:00 22 8 Norte 23 Noroeste -- 1014.2 -0.9 75
2018-11-20 16:00:00 21.9 16 Sur 25 Sur -- 1014.3 -1.4 78
2018-11-20 15:00:00 21.7 13 Sur 18 Sudeste -- 1014.6 -1.9 75
2018-11-20 14:00:00 22.7 8 Sur 15 Sur -- 1015.1 -1.7 69
2018-11-20 13:00:00 23.8 3 Sudeste 11 Sudeste -- 1015.7 -0.6 67
2018-11-20 12:00:00 23.7 3 Este 12 Este -- 1016.5 0.7 69
2018-11-20 11:00:00 22.6 4 Este 14 Este -- 1016.8 1.5 72
2018-11-20 10:00:00 21.3 7 Nordeste 18 Nordeste -- 1016.3 1.7 74
2018-11-20 09:00:00 18.7 6 Norte 15 Noroeste -- 1015.8 1.6 79
2018-11-20 08:00:00 17 10 Noroeste 17 Noroeste -- 1015.3 1.3 84
2018-11-20 07:00:00 17.1 7 Noroeste 16 Nordeste -- 1014.6 0.6 85
2018-11-20 06:00:00 17.3 9 Norte 17 Noroeste -- 1014.2 0.3 84
2018-11-20 05:00:00 18.9 6 Noroeste 22 Norte -- 1014 -0.1 77
2018-11-20 04:00:00 18.9 15 Noroeste 26 Noroeste -- 1014 0 76
2018-11-20 03:00:00 18.7 10 Noroeste 24 Noroeste -- 1013.9 -0.1 75
2018-11-20 02:00:00 19.1 12 Noroeste 29 Noroeste -- 1014.1 0.2 74
2018-11-20 01:00:00 19.3 15 Norte 31 Norte -- 1014 0.1 75
2018-11-20 00:00:00 19.3 15 Norte 29 Norte -- 1014 0.6 75
2018-11-19 23:00:00 19.4 12 Norte 32 Norte -- 1013.9 1.1 74
2018-11-19 22:00:00 19.4 10 Norte 32 Nordeste -- 1013.9 1.7 74
2018-11-19 21:00:00 19.7 12 Norte 31 Nordeste -- 1013.4 1.9 73
2018-11-19 20:00:00 19.9 11 Norte 34 Nordeste -- 1012.8 1.6 74
2018-11-19 19:00:00 19.9 10 Norte 32 Norte -- 1012.2 1 75
2018-11-19 18:00:00 20 10 Norte 27 Noroeste -- 1011.5 0.5 72
2018-11-19 17:00:00 20.1 12 Norte 28 Norte -- 1011.2 -0.5 74
2018-11-19 16:00:00 19.9 10 Norte 27 Noroeste -- 1011.2 -0.9 77
2018-11-19 15:00:00 20.3 8 Noroeste 28 Noroeste -- 1011 -1.5 74
2018-11-19 14:00:00 19.2 8 Noroeste 32 Oeste -- 1011.7 -1.2 81
2018-11-19 13:00:00 20.5 15 Noroeste 32 Oeste -- 1012.1 -0.8 73
2018-11-19 12:00:00 20.1 14 Noroeste 30 Noroeste -- 1012.5 0.3 71
2018-11-19 11:00:00 20.8 11 Noroeste 31 Noroeste -- 1012.9 1.4 71
2018-11-19 10:00:00 18 6 Noroeste 29 Nordeste -- 1012.9 1.9 89
2018-11-19 09:00:00 19.1 6 Norte 28 Norte -- 1012.2 1.4 79
2018-11-19 08:00:00 19.1 12 Noroeste 30 Norte -- 1011.5 1.3 69
2018-11-19 07:00:00 18.1 4 Noroeste 13 Noroeste -- 1011 0.7 74
2018-11-19 06:00:00 18.2 5 Noroeste 32 Norte -- 1010.8 0.6 73
2018-11-19 05:00:00 18.8 9 Norte 29 Nordeste -- 1010.2 -0.4 74
2018-11-19 04:00:00 18.6 4 Noroeste 25 Norte -- 1010.3 -0.7 74
2018-11-19 03:00:00 19 9 Norte 24 Noroeste -- 1010.2 -1.2 73
2018-11-19 02:00:00 18.5 6 Noroeste 15 Noroeste -- 1010.6 -1.3 75
2018-11-19 01:00:00 17.3 7 Noroeste 17 Oeste -- 1011 -0.7 86
2018-11-19 00:00:00 17.5 12 Noroeste 21 Noroeste -- 1011.4 -0.5 85
2018-11-18 23:00:00 18.3 10 Noroeste 20 Norte -- 1011.9 0.6 79
2018-11-18 22:00:00 19.3 6 Noroeste 24 Noroeste -- 1011.7 0.7 73
2018-11-18 21:00:00 19.5 9 Noroeste 26 Oeste -- 1011.9 0.9 69
2018-11-18 20:00:00 19.7 10 Noroeste 24 Noroeste -- 1011.3 0.6 68
2018-11-18 19:00:00 19.3 7 Noroeste 26 Noroeste -- 1011 0.4 72
2018-11-18 18:00:00 19.1 9 Noroeste 26 Noroeste -- 1011 0.3 74
2018-11-18 17:00:00 19.3 9 Noroeste 30 Norte -- 1010.7 -0.4 77
2018-11-18 16:00:00 19.2 9 Noroeste 35 Nordeste -- 1010.6 -1.1 83
2018-11-18 15:00:00 20 10 Norte 32 Noroeste -- 1010.7 -2 79
2018-11-18 14:00:00 21.1 13 Noroeste 29 Noroeste -- 1011.1 -1.8 69
2018-11-18 13:00:00 20.3 9 Noroeste 18 Noroeste -- 1011.7 -0.6 74
2018-11-18 12:00:00 17 10 Noroeste 23 Noroeste -- 1012.7 0.9 95
2018-11-18 11:00:00 18.9 5 Noroeste 16 Noroeste -- 1012.9 1.3 83
2018-11-18 10:00:00 18.5 4 Noroeste 11 Norte -- 1012.3 1.3 82
2018-11-18 09:00:00 17.8 4 Noroeste 12 Noroeste -- 1011.8 1.8 86
2018-11-18 08:00:00 17.9 6 Noroeste 13 Noroeste -- 1011.6 1.4 83
2018-11-18 07:00:00 17.9 8 Noroeste 13 Norte -- 1011 0.7 80
2018-11-18 06:00:00 18.9 4 Noroeste 22 Nordeste -- 1010 -0.5 74
2018-11-18 05:00:00 19.1 5 Noroeste 22 Nordeste -- 1010.2 -0.2 72
2018-11-18 04:00:00 18.9 7 Noroeste 28 Norte -- 1010.3 -0.7 74
2018-11-18 03:00:00 18.5 6 Noroeste 15 Noroeste -- 1010.5 -0.6 78
2018-11-18 02:00:00 19.5 7 Noroeste 15 Noroeste -- 1010.4 -0.7 71
2018-11-18 01:00:00 19.5 5 Noroeste 23 Norte -- 1011 0.3 71
2018-11-18 00:00:00 20.1 8 Noroeste 22 Noroeste -- 1011.1 0.9 70
2018-11-17 23:00:00 19.7 10 Norte 25 Nordeste -- 1011.1 1.2 75
2018-11-17 22:00:00 19.9 10 Noroeste 31 Norte -- 1010.7 1.4 74
2018-11-17 21:00:00 20.3 12 Norte 28 Noroeste -- 1010.2 1.5 74
2018-11-17 20:00:00 20.2 14 Norte 38 Nordeste -- 1009.9 2.1 79
2018-11-17 19:00:00 19.1 11 Noroeste 35 Noroeste -- 1009.3 1.8 86
2018-11-17 18:00:00 20.1 9 Noroeste 34 Noroeste -- 1008.7 1.3 84
2018-11-17 17:00:00 22.7 10 Norte 34 Norte -- 1007.8 0.1 72
2018-11-17 16:00:00 23.1 14 Norte 33 Noroeste -- 1007.5 -0.8 71
2018-11-17 15:00:00 22.8 17 Norte 40 Norte -- 1007.4 -1.8 71
2018-11-17 14:00:00 22.3 13 Norte 29 Norte -- 1007.7 -1.8 75
2018-11-17 13:00:00 20.8 9 Norte 19 Noroeste -- 1008.3 -0.9 92
2018-11-17 12:00:00 20.8 6 Noroeste 37 Sudoeste -- 1009.2 0 94
2018-11-17 11:00:00 21.7 11 Sudoeste 27 Sudoeste -- 1009.5 0.5 87
2018-11-17 10:00:00 21.6 11 Sur 33 Sur -- 1009.2 0.3 86
2018-11-17 09:00:00 20.9 14 Sur 30 Sur -- 1009.2 -0.2 88
2018-11-17 08:00:00 21.2 11 Sur 42 Sur -- 1009 -0.2 81
2018-11-17 07:00:00 21.3 18 Sur 33 Sur -- 1008.9 -1.2 82
2018-11-17 06:00:00 19.3 5 Noroeste 31 Sur -- 1009.4 -1.3 75
2018-11-17 05:00:00 20.5 13 Sur 35 Sur -- 1009.2 -2.1 79
2018-11-17 04:00:00 20.4 5 Sudoeste 22 Sudoeste -- 1010.1 -2.1 72
2018-11-17 03:00:00 20.5 8 Sur 16 Sur -- 1010.7 -1.7 71
2018-11-17 02:00:00 18.7 8 Norte 15 Noroeste -- 1011.3 -1.1 69
2018-11-17 01:00:00 18 8 Norte 15 Noroeste -- 1012.2 -0.5 71
2018-11-17 00:00:00 17.7 2 Noroeste 17 Sudoeste -- 1012.4 0 72
2018-11-16 23:00:00 19.5 6 Sur 15 Sur -- 1012.4 0.3 71
2018-11-16 22:00:00 18.5 7 Noroeste 14 Noroeste -- 1012.7 0.9 68
2018-11-16 21:00:00 19.3 0 Calma 13 Noroeste -- 1012.4 1.1 66
2018-11-16 20:00:00 19.5 6 Noroeste 12 Noroeste -- 1012.1 1 66
2018-11-16 19:00:00 20.3 4 Noroeste 9 Este -- 1011.8 0.3 68
2018-11-16 18:00:00 21.1 3 Este 11 Este -- 1011.3 -1 66
2018-11-16 17:00:00 22.5 3 Sudeste 14 Este -- 1011.1 -1.8 63
2018-11-16 16:00:00 22.4 7 Nordeste 26 Nordeste -- 1011.5 -1.8 63
2018-11-16 15:00:00 22.6 4 Noroeste 39 Noroeste -- 1012.3 -1.7 63
2018-11-16 14:00:00 21.4 10 Norte 32 Nordeste -- 1012.9 -1.5 65
2018-11-16 13:00:00 21.5 12 Nordeste 36 Nordeste -- 1013.3 -0.3 67
2018-11-16 12:00:00 21.6 9 Nordeste 27 Nordeste -- 1014 0.6 66
2018-11-16 11:00:00 21.5 10 Nordeste 23 Nordeste -- 1014.4 1.4 67
2018-11-16 10:00:00 20.6 5 Norte 11 Nordeste -- 1013.6 0.7 66
2018-11-16 09:00:00 19.4 4 Noroeste 10 Noroeste -- 1013.4 0.6 70
2018-11-16 08:00:00 19.1 5 Noroeste 17 Noroeste -- 1013 0.1 69
2018-11-16 07:00:00 19.1 4 Noroeste 9 Noroeste -- 1012.9 -0.1 68
2018-11-16 06:00:00 19.1 0 Calma 19 Noroeste -- 1012.8 -0.2 68
2018-11-16 05:00:00 19.3 5 Noroeste 23 Nordeste -- 1012.9 -0.5 68
2018-11-16 04:00:00 19.4 6 Noroeste 12 Norte -- 1013 -0.4 68
2018-11-16 03:00:00 19 4 Noroeste 10 Noroeste -- 1013 -0.6 68
2018-11-16 02:00:00 18.9 7 Noroeste 15 Norte -- 1013.4 -0.3 68
2018-11-16 01:00:00 19.1 6 Noroeste 13 Noroeste -- 1013.4 -0.4 68
2018-11-16 00:00:00 19.4 6 Noroeste 23 Noroeste -- 1013.6 0.3 67
2018-11-15 23:00:00 20 16 Norte 34 Norte -- 1013.7 0.9 65
2018-11-15 22:00:00 20.1 14 Noroeste 33 Noroeste -- 1013.8 1.3 67
2018-11-15 21:00:00 20.3 14 Noroeste 31 Noroeste -- 1013.3 0.9 67
2018-11-15 20:00:00 20.4 14 Noroeste 28 Norte -- 1012.8 0.7 65
2018-11-15 19:00:00 20.5 9 Noroeste 30 Norte -- 1012.5 0.4 66
2018-11-15 18:00:00 20.9 14 Noroeste 36 Noroeste -- 1012.4 0.2 61
2018-11-15 17:00:00 21.6 12 Noroeste 35 Noroeste -- 1012.1 -0.8 64
2018-11-15 16:00:00 22.2 12 Noroeste 33 Noroeste -- 1012.1 -1.3 64
2018-11-15 15:00:00 22.2 13 Noroeste 33 Oeste -- 1012.2 -2.2 63
2018-11-15 14:00:00 22.6 13 Norte 38 Noroeste -- 1012.9 -2.1 66
2018-11-15 13:00:00 22.2 13 Noroeste 31 Noroeste -- 1013.4 -1.1 68
2018-11-15 12:00:00 20.2 14 Noroeste 37 Noroeste -- 1014.4 0.1 77
2018-11-15 11:00:00 19.3 8 Norte 33 Norte -- 1015 1.2 87
2018-11-15 10:00:00 21.9 5 Este 10 Este -- 1014.5 1.2 63
2018-11-15 09:00:00 19.6 5 Norte 16 Noroeste -- 1014.3 1.1 69
2018-11-15 08:00:00 16.8 9 Noroeste 15 Noroeste -- 1013.8 0.7 75
2018-11-15 07:00:00 16.7 6 Norte 13 Noroeste -- 1013.3 -0.2 72
2018-11-15 06:00:00 16.7 8 Norte 15 Noroeste -- 1013.2 -0.4 71
2018-11-15 05:00:00 16.9 8 Noroeste 15 Noroeste -- 1013.1 -1 68
2018-11-15 04:00:00 16.7 9 Noroeste 17 Noroeste -- 1013.5 -1.2 68
2018-11-15 03:00:00 17.3 5 Norte 13 Noroeste -- 1013.6 -1.1 68
2018-11-15 02:00:00 17.8 6 Noroeste 11 Noroeste -- 1014.1 -1.5 70
2018-11-15 01:00:00 18.3 6 Noroeste 13 Norte -- 1014.7 -1.1 72
2018-11-15 00:00:00 19.1 5 Noroeste 15 Noroeste -- 1014.7 -0.1 75
2018-11-14 23:00:00 19.6 6 Noroeste 24 Noroeste -- 1015.6 1.4 73
2018-11-14 22:00:00 19.7 9 Noroeste 23 Noroeste -- 1015.8 1.6 72
2018-11-14 21:00:00 19.7 8 Norte 22 Norte -- 1014.8 0.7 72
2018-11-14 20:00:00 19.9 8 Norte 30 Nordeste -- 1014.2 0 73
2018-11-14 19:00:00 20.2 8 Norte 33 Nordeste -- 1014.2 -0.1 73
2018-11-14 18:00:00 20.7 7 Norte 30 Norte -- 1014.1 -0.2 68
2018-11-14 17:00:00 21.5 10 Noroeste 31 Oeste -- 1014.2 -0.2 65
2018-11-14 16:00:00 21.8 13 Norte 37 Noroeste -- 1014.3 -0.8 63
2018-11-14 15:00:00 22.4 17 Noroeste 33 Noroeste -- 1014.3 -1.7 61
2018-11-14 14:00:00 23.1 11 Noroeste 30 Norte -- 1014.4 -1.8 60
2018-11-14 13:00:00 22.3 9 Norte 28 Nordeste -- 1015.1 -1 63
2018-11-14 12:00:00 23.3 8 Norte 29 Nordeste -- 1016 0.3 62
2018-11-14 11:00:00 21.9 8 Norte 31 Noroeste -- 1016.2 0.8 63
2018-11-14 10:00:00 21.5 6 Norte 23 Noroeste -- 1016.1 1.2 65
2018-11-14 09:00:00 20.7 9 Norte 28 Noroeste -- 1015.7 1.1 68
2018-11-14 08:00:00 19.7 14 Noroeste 28 Noroeste -- 1015.4 0.8 71
2018-11-14 07:00:00 19.5 12 Noroeste 26 Noroeste -- 1014.9 0 72
2018-11-14 06:00:00 19 9 Noroeste 30 Noroeste -- 1014.6 -0.7 72
2018-11-14 05:00:00 19.3 11 Norte 34 Norte -- 1014.6 -1.2 71
2018-11-14 04:00:00 19.7 14 Noroeste 33 Noroeste -- 1014.9 -0.9 66
2018-11-14 03:00:00 19.6 10 Noroeste 33 Norte -- 1015.3 -0.7 69
2018-11-14 02:00:00 19.8 11 Norte 46 Noroeste -- 1015.8 -0.7 68
2018-11-14 01:00:00 19.4 16 Noroeste 41 Noroeste -- 1015.8 -1 72
2018-11-14 00:00:00 20 13 Noroeste 39 Noroeste -- 1016 -0.4 66
2018-11-13 23:00:00 19.7 16 Noroeste 41 Noroeste -- 1016.5 0.1 70
2018-11-13 22:00:00 19.7 18 Noroeste 55 Noroeste -- 1016.8 0.7 69
2018-11-13 21:00:00 19.9 26 Noroeste 56 Noroeste -- 1016.4 0.3 69
2018-11-13 20:00:00 19.7 18 Norte 50 Norte -- 1016.4 0.1 72
2018-11-13 19:00:00 19.9 20 Noroeste 50 Noroeste -- 1016.1 0.3 70
2018-11-13 18:00:00 19.8 17 Norte 45 Nordeste -- 1016.1 0 71
2018-11-13 17:00:00 20.9 12 Noroeste 47 Noroeste -- 1016.3 -0.4 66
2018-11-13 16:00:00 21.3 16 Noroeste 45 Noroeste -- 1015.8 -1.3 64
2018-11-13 15:00:00 21.4 19 Noroeste 45 Noroeste -- 1016.1 -1.6 64
2018-11-13 14:00:00 21.8 13 Noroeste 48 Norte -- 1016.7 -1.4 65
2018-11-13 13:00:00 21.6 13 Norte 48 Norte -- 1017.1 -1 64
2018-11-13 12:00:00 21.7 17 Norte 48 Nordeste -- 1017.7 -0.2 64
2018-11-13 11:00:00 20.6 18 Norte 46 Noroeste -- 1018.1 0.6 62
2018-11-13 10:00:00 21 17 Norte 50 Norte -- 1018.1 1.1 65
2018-11-13 09:00:00 20.5 15 Norte 61 Nordeste -- 1017.9 0.9 68
2018-11-13 08:00:00 19.6 13 Norte 42 Noroeste -- 1017.5 0.5 71
2018-11-13 07:00:00 19.8 15 Norte 40 Norte -- 1017 0.5 65
2018-11-13 06:00:00 19.7 12 Norte 36 Norte -- 1017 0.3 69
2018-11-13 05:00:00 19.7 15 Norte 42 Norte -- 1017 0.4 69
2018-11-13 04:00:00 19.7 18 Norte 51 Nordeste -- 1016.5 -0.2 71
2018-11-13 03:00:00 19.8 14 Norte 44 Norte -- 1016.7 -0.8 67
2018-11-13 02:00:00 19.9 15 Norte 45 Nordeste -- 1016.6 -0.9 69
2018-11-13 01:00:00 20 17 Norte 45 Norte -- 1016.7 -1 67
2018-11-13 00:00:00 20 17 Norte 52 Norte -- 1017.5 0.3 71
2018-11-12 23:00:00 19.9 14 Norte 43 Norte -- 1017.5 0.7 74
2018-11-12 22:00:00 19.8 10 Norte 47 Nordeste -- 1017.7 1.1 75
2018-11-12 21:00:00 20.1 14 Norte 43 Norte -- 1017.2 1.1 73
2018-11-12 20:00:00 20.2 15 Norte 50 Nordeste -- 1016.8 0.7 72
2018-11-12 19:00:00 20.6 15 Norte 46 Noroeste -- 1016.6 0.8 67
2018-11-12 18:00:00 20.7 17 Noroeste 41 Noroeste -- 1016.1 0.3 65
2018-11-12 17:00:00 21.3 22 Noroeste 47 Noroeste -- 1016.1 0.2 65
2018-11-12 16:00:00 22 11 Noroeste 36 Norte -- 1015.8 -0.1 66
2018-11-12 15:00:00 21.6 12 Norte 40 Nordeste -- 1015.8 -1.4 69
2018-11-12 14:00:00 21.4 13 Norte 47 Noroeste -- 1015.9 -1.2 73
2018-11-12 13:00:00 22.4 20 Noroeste 53 Noroeste -- 1015.9 -0.8 71
2018-11-12 12:00:00 20.5 13 Noroeste 39 Noroeste -- 1017.2 0.9 83
2018-11-12 11:00:00 20.7 18 Norte 44 Noroeste -- 1017.1 1.3 85
2018-11-12 10:00:00 21.6 19 Norte 54 Noroeste -- 1016.7 2 77
2018-11-12 09:00:00 20 18 Noroeste 49 Noroeste -- 1016.3 1.4 87
2018-11-12 08:00:00 19.7 17 Norte 39 Norte -- 1015.8 1.2 89
2018-11-12 07:00:00 20.3 10 Noroeste 36 Norte -- 1014.7 0.4 80
2018-11-12 06:00:00 19.9 13 Norte 30 Noroeste -- 1014.9 0 86
2018-11-12 05:00:00 19.4 2 Noroeste 8 Noroeste -- 1014.6 -0.7 77
2018-11-12 04:00:00 19.2 0 Calma 10 Noroeste -- 1014.3 -1.5 76
2018-11-12 03:00:00 19.5 3 Noroeste 7 Noroeste -- 1014.9 -1.3 75
2018-11-12 02:00:00 20.3 0 Calma 11 Este -- 1015.3 -1.1 74
2018-11-12 01:00:00 20.6 0 Calma 15 Nordeste -- 1015.8 -0.5 73
2018-11-12 00:00:00 20.9 6 Norte 22 Noroeste -- 1016.2 0.4 72
2018-11-11 23:00:00 21.4 10 Noroeste 27 Nordeste -- 1016.4 1.2 70
2018-11-11 22:00:00 21.2 7 Noroeste 24 Norte -- 1016.3 1.3 69
2018-11-11 21:00:00 21.1 9 Norte 30 Norte -- 1015.8 1.2 70
2018-11-11 20:00:00 21.2 15 Norte 33 Noroeste -- 1015.2 0.6 71
2018-11-11 19:00:00 21.3 12 Noroeste 32 Norte -- 1015 0.2 71
2018-11-11 18:00:00 21.5 15 Noroeste 36 Noroeste -- 1014.6 -0.8 69
2018-11-11 17:00:00 22.5 11 Norte 26 Noroeste -- 1014.6 -0.8 66
2018-11-11 16:00:00 22.9 9 Norte 30 Noroeste -- 1014.8 -1.5 63
2018-11-11 15:00:00 23.3 13 Noroeste 33 Noroeste -- 1015.4 -1.8 61
2018-11-11 14:00:00 23.1 5 Noroeste 27 Nordeste -- 1015.4 -2 64
2018-11-11 13:00:00 22.2 8 Noroeste 26 Noroeste -- 1016.3 -1 64
2018-11-11 12:00:00 22.4 7 Noroeste 20 Nordeste -- 1017.2 0.2 64
2018-11-11 11:00:00 22.6 4 Norte 26 Norte -- 1017.4 0.9 63
2018-11-11 10:00:00 21.8 9 Norte 25 Noroeste -- 1017.3 1 65
2018-11-11 09:00:00 21.2 7 Norte 24 Norte -- 1017 1.2 67
2018-11-11 08:00:00 20.7 10 Noroeste 26 Nordeste -- 1016.5 0.6 65
2018-11-11 07:00:00 20.3 8 Norte 26 Noroeste -- 1016.3 0.1 68
2018-11-11 06:00:00 20.2 12 Norte 33 Nordeste -- 1015.8 -0.7 70
2018-11-11 05:00:00 20.2 8 Norte 26 Nordeste -- 1015.9 -1.1 74
2018-11-11 04:00:00 20.4 10 Noroeste 23 Noroeste -- 1016.2 -1.3 73
2018-11-11 03:00:00 20.1 8 Noroeste 36 Noroeste -- 1016.5 -1.4 71
2018-11-11 02:00:00 20.5 10 Noroeste 33 Noroeste -- 1017 -1 72
2018-11-11 01:00:00 20.6 10 Noroeste 30 Nordeste -- 1017.5 -0.4 72
2018-11-11 00:00:00 20.6 11 Norte 26 Norte -- 1017.9 -0.1 74
2018-11-10 23:00:00 20.6 14 Norte 28 Norte -- 1018 0.3 73
2018-11-10 22:00:00 20.6 13 Norte 36 Nordeste -- 1017.9 0.6 71
2018-11-10 21:00:00 20.9 13 Norte 35 Noroeste -- 1018 0.6 69
2018-11-10 20:00:00 20.8 13 Norte 31 Noroeste -- 1017.7 0.1 70
2018-11-10 19:00:00 21 10 Norte 35 Noroeste -- 1017.3 -0.3 71
2018-11-10 18:00:00 21.2 14 Norte 33 Norte -- 1017.4 -0.5 68
2018-11-10 17:00:00 21.7 9 Norte 33 Norte -- 1017.6 -0.6 68
2018-11-10 16:00:00 22.9 7 Norte 29 Nordeste -- 1017.6 -1.3 67
2018-11-10 15:00:00 22.6 11 Norte 35 Oeste -- 1017.9 -1.7 67
2018-11-10 14:00:00 23.5 11 Noroeste 31 Noroeste -- 1018.2 -1.8 61
2018-11-10 13:00:00 24 6 Norte 36 Nordeste -- 1018.9 -1 62
2018-11-10 12:00:00 22.7 13 Norte 40 Noroeste -- 1019.6 0.1 65
2018-11-10 11:00:00 22.5 13 Norte 41 Noroeste -- 1020 0.9 66
2018-11-10 10:00:00 21.8 10 Norte 42 Norte -- 1019.9 0.9 70
2018-11-10 09:00:00 21.1 13 Norte 37 Oeste -- 1019.5 0.7 71
2018-11-10 08:00:00 20.3 12 Norte 29 Norte -- 1019.1 0.2 71
2018-11-10 07:00:00 19.9 9 Noroeste 20 Noroeste -- 1019 -0.1 72
2018-11-10 06:00:00 20 12 Noroeste 23 Noroeste -- 1018.8 -0.7 71
2018-11-10 05:00:00 19.8 10 Noroeste 22 Noroeste -- 1018.9 -1.2 71
2018-11-10 04:00:00 20.1 10 Norte 26 Norte -- 1019.1 -1.3 70
2018-11-10 03:00:00 20.1 15 Noroeste 31 Noroeste -- 1019.5 -1 70
2018-11-10 02:00:00 20.1 12 Noroeste 28 Noroeste -- 1020.1 -0.9 71
2018-11-10 01:00:00 20.4 11 Noroeste 40 Noroeste -- 1020.4 -0.5 71
2018-11-10 00:00:00 20.7 18 Noroeste 37 Noroeste -- 1020.5 -0.3 72